createdAt,value
2022-08-25T00:01:48.310Z,21.4
2022-08-25T00:11:48.110Z,21.2
2022-08-25T00:31:48.348Z,21.3
2022-08-25T00:41:48.371Z,21.1
2022-08-25T01:01:48.475Z,21.1
2022-08-25T01:11:48.393Z,20.9
2022-08-25T01:21:48.406Z,20.7
2022-08-25T01:31:48.436Z,20.6
2022-08-25T01:41:48.436Z,20.5
2022-08-25T01:51:48.472Z,20.3
2022-08-25T02:01:48.529Z,20.2
2022-08-25T02:21:48.337Z,19.8
2022-08-25T02:31:48.551Z,19.7
2022-08-25T02:41:48.348Z,19.7
2022-08-25T03:01:48.380Z,19.7
2022-08-25T03:11:48.572Z,19.5
2022-08-25T03:21:48.613Z,19.5
2022-08-25T03:31:48.708Z,19.4
2022-08-25T03:41:48.631Z,19.1
2022-08-25T04:41:48.714Z,18.8
2022-08-25T04:51:48.727Z,19.1
2022-08-25T05:31:50.758Z,20.8
2022-08-25T05:41:48.805Z,21.1
2022-08-25T05:51:48.840Z,21.5
2022-08-25T06:41:48.915Z,23.4
2022-08-25T06:51:48.893Z,23.9
2022-08-25T07:01:49.599Z,24.3
2022-08-25T07:21:48.958Z,26.2
2022-08-25T07:31:48.990Z,27.2
2022-08-25T07:41:52.003Z,27.3
2022-08-25T07:52:04.205Z,27.6
2022-08-25T08:01:48.918Z,28.5
2022-08-25T08:11:54.328Z,29
2022-08-25T08:21:49.031Z,29.9
2022-08-25T08:31:49.117Z,30.2
2022-08-25T08:42:09.591Z,30
2022-08-25T08:51:49.060Z,30.2
2022-08-25T09:01:52.599Z,30.5
2022-08-25T09:21:49.125Z,30.9
2022-08-25T09:31:49.211Z,31.5
2022-08-25T09:51:49.160Z,32.5
2022-08-25T10:21:49.215Z,33.4
2022-08-25T10:31:49.217Z,33.3
2022-08-25T10:41:49.305Z,33.3
2022-08-25T11:01:53.436Z,33.7
2022-08-25T11:11:49.283Z,33.2
2022-08-25T11:21:49.288Z,33.8
2022-08-25T11:31:53.020Z,34.6
2022-08-25T11:41:49.324Z,33.6
2022-08-25T12:01:49.360Z,33.8
2022-08-25T12:11:49.366Z,34.4
2022-08-25T12:41:49.463Z,35.6
2022-08-25T12:51:49.273Z,35.3
2022-08-25T13:21:49.489Z,35.7
2022-08-25T13:31:49.935Z,36
2022-08-25T13:41:49.528Z,36.4
2022-08-25T14:01:50.230Z,36.3
2022-08-25T14:11:49.566Z,35.7
2022-08-25T14:21:49.742Z,35.8
2022-08-25T14:31:49.669Z,35.6
2022-08-25T14:41:53.194Z,34.6
2022-08-25T14:51:49.474Z,35.1
2022-08-25T15:01:50.127Z,35.6
2022-08-25T15:11:50.574Z,35.8
2022-08-25T15:21:49.693Z,35.7
2022-08-25T15:31:49.774Z,35.7
2022-08-25T15:51:49.714Z,33.8
2022-08-25T16:01:49.805Z,32.7
2022-08-25T16:11:55.837Z,31.8
2022-08-25T16:21:49.786Z,31.6
2022-08-25T16:31:54.792Z,31
2022-08-25T16:41:49.795Z,30.7
2022-08-25T16:51:49.817Z,30.2
2022-08-25T17:01:49.854Z,29.9
2022-08-25T17:11:49.834Z,29.6
2022-08-25T17:21:50.084Z,29.4
2022-08-25T17:31:49.872Z,29.1
2022-08-25T17:41:49.921Z,28.7
2022-08-25T17:51:49.896Z,28.4
2022-08-25T18:01:50.054Z,28
2022-08-25T18:11:49.940Z,27.7
2022-08-25T18:21:49.942Z,27.4
2022-08-25T18:31:51.942Z,27.1
2022-08-25T18:41:49.970Z,26.7
2022-08-25T18:51:49.973Z,26.4
2022-08-25T19:01:50.362Z,26.1
2022-08-25T19:21:50.870Z,25.9
2022-08-25T19:31:50.044Z,25.7
2022-08-25T19:41:49.869Z,25.5
2022-08-25T19:51:51.169Z,25.4
2022-08-25T20:11:50.095Z,24.8
2022-08-25T20:21:50.134Z,24.5
2022-08-25T20:41:50.160Z,24.1
2022-08-25T21:01:50.238Z,24
2022-08-25T21:11:50.182Z,23.8
2022-08-25T21:21:50.184Z,23.5
2022-08-25T21:31:50.211Z,23.3
2022-08-25T21:41:50.221Z,23.1
2022-08-25T21:51:59.153Z,22.8
2022-08-25T22:01:50.262Z,22.8
2022-08-25T22:11:50.270Z,23.1
2022-08-25T22:21:50.298Z,22.9
2022-08-25T22:31:51.097Z,22.7
2022-08-25T22:41:50.345Z,22.5
2022-08-25T22:51:50.315Z,22.3
2022-08-25T23:11:51.246Z,22.2
2022-08-25T23:21:50.370Z,22.2
2022-08-25T23:31:50.398Z,22.3
2022-08-25T23:41:50.421Z,22.2
